createdAt,value
2017-11-08T00:00:13.702Z,9.13
2017-11-08T00:00:39.824Z,9.11
2017-11-08T00:01:05.945Z,9.1
2017-11-08T00:01:32.087Z,9.18
2017-11-08T00:01:58.203Z,9.16
2017-11-08T00:02:24.330Z,9.13
2017-11-08T00:02:50.448Z,9.16
2017-11-08T00:03:16.574Z,9.1
2017-11-08T00:03:42.684Z,9.14
2017-11-08T00:04:08.801Z,9.16
2017-11-08T00:04:34.926Z,9.16
2017-11-08T00:05:01.053Z,9.13
2017-11-08T00:05:27.173Z,9.13
2017-11-08T00:05:53.293Z,9.18
2017-11-08T00:06:19.423Z,9.23
2017-11-08T00:06:45.539Z,9.22
2017-11-08T00:07:11.657Z,9.23
2017-11-08T00:07:37.782Z,9.23
2017-11-08T00:08:03.903Z,9.34
2017-11-08T00:08:30.022Z,9.37
2017-11-08T00:08:56.140Z,9.41
2017-11-08T00:09:22.260Z,9.32
2017-11-08T00:09:48.420Z,9.29
2017-11-08T00:10:14.537Z,9.34
2017-11-08T00:10:40.669Z,9.26
2017-11-08T00:11:06.786Z,9.21
2017-11-08T00:11:32.911Z,9.25
2017-11-08T00:11:59.034Z,9.26
2017-11-08T00:12:25.153Z,9.31
2017-11-08T00:12:51.276Z,9.34
2017-11-08T00:13:17.394Z,9.36
2017-11-08T00:13:43.517Z,9.31
2017-11-08T00:14:09.632Z,9.32
2017-11-08T00:14:35.759Z,9.26
2017-11-08T00:15:01.874Z,9.34
2017-11-08T00:15:27.995Z,9.32
2017-11-08T00:15:54.121Z,9.36
2017-11-08T00:16:20.234Z,9.37
2017-11-08T00:16:46.362Z,9.28
2017-11-08T00:17:12.482Z,9.37
2017-11-08T00:17:38.598Z,9.37
2017-11-08T00:18:04.748Z,9.34
2017-11-08T00:18:30.864Z,9.31
2017-11-08T00:18:56.982Z,9.32
2017-11-08T00:19:23.111Z,9.36
2017-11-08T00:19:49.228Z,9.26
2017-11-08T00:20:15.370Z,9.32
2017-11-08T00:20:41.496Z,9.36
2017-11-08T00:21:07.635Z,9.36
2017-11-08T00:21:33.753Z,9.32
2017-11-08T00:21:59.877Z,9.32
2017-11-08T00:22:25.991Z,9.34
2017-11-08T00:22:52.111Z,9.37
2017-11-08T00:23:18.230Z,9.25
2017-11-08T00:23:44.354Z,9.32
2017-11-08T00:24:10.472Z,9.25
2017-11-08T00:24:36.601Z,9.34
2017-11-08T00:25:02.742Z,9.29
2017-11-08T00:25:28.868Z,9.32
2017-11-08T00:25:54.988Z,9.29
2017-11-08T00:26:21.109Z,9.29
2017-11-08T00:26:47.233Z,9.32
2017-11-08T00:27:13.355Z,9.36
2017-11-08T00:27:39.474Z,9.32
2017-11-08T00:28:05.591Z,9.31
2017-11-08T00:28:31.728Z,9.34
2017-11-08T00:28:57.830Z,9.39
2017-11-08T00:29:23.946Z,9.41
2017-11-08T00:29:50.071Z,9.46
2017-11-08T00:30:16.221Z,9.43
2017-11-08T00:30:42.339Z,9.39
2017-11-08T00:31:08.456Z,9.4
2017-11-08T00:31:34.584Z,9.39
2017-11-08T00:32:00.702Z,9.43
2017-11-08T00:32:26.847Z,9.41
2017-11-08T00:32:52.965Z,9.4
2017-11-08T00:33:19.089Z,9.37
2017-11-08T00:33:45.207Z,9.37
2017-11-08T00:34:11.329Z,9.34
2017-11-08T00:34:37.448Z,9.26
2017-11-08T00:35:03.575Z,9.34
2017-11-08T00:35:29.690Z,9.36
2017-11-08T00:35:55.838Z,9.34
2017-11-08T00:36:21.954Z,9.25
2017-11-08T00:36:48.078Z,9.39
2017-11-08T00:37:14.219Z,9.37
2017-11-08T00:37:40.341Z,9.34
2017-11-08T00:38:06.461Z,9.37
2017-11-08T00:38:32.587Z,9.31
2017-11-08T00:38:58.708Z,9.23
2017-11-08T00:39:24.820Z,9.26
2017-11-08T00:39:50.946Z,9.14
2017-11-08T00:40:17.065Z,9.23
2017-11-08T00:40:43.192Z,9.26
2017-11-08T00:41:09.314Z,9.25
2017-11-08T00:41:35.436Z,9.22
2017-11-08T00:42:01.552Z,9.21
2017-11-08T00:42:27.670Z,9.23
2017-11-08T00:42:53.798Z,9.22
2017-11-08T00:43:19.912Z,9.32
2017-11-08T00:43:46.040Z,9.31
2017-11-08T00:44:12.164Z,9.34
2017-11-08T00:44:38.278Z,9.34
2017-11-08T00:45:04.396Z,9.29
2017-11-08T00:45:30.518Z,9.34
2017-11-08T00:45:56.638Z,9.34
2017-11-08T00:46:22.763Z,9.26
2017-11-08T00:46:48.880Z,9.29
2017-11-08T00:47:15.000Z,9.23
2017-11-08T00:47:41.120Z,9.22
2017-11-08T00:48:07.246Z,9.19
2017-11-08T00:48:33.364Z,9.23
2017-11-08T00:48:59.498Z,9.26
2017-11-08T00:49:25.610Z,9.26
2017-11-08T00:49:51.728Z,9.25
2017-11-08T00:50:17.852Z,9.28
2017-11-08T00:50:43.968Z,9.31
2017-11-08T00:51:10.097Z,9.34
2017-11-08T00:51:36.216Z,9.31
2017-11-08T00:52:02.361Z,9.32
2017-11-08T00:52:28.484Z,9.29
2017-11-08T00:52:54.600Z,9.37
2017-11-08T00:53:20.726Z,9.34
2017-11-08T00:53:46.849Z,9.36
2017-11-08T00:54:12.969Z,9.28
2017-11-08T00:54:39.086Z,9.31
2017-11-08T00:55:05.212Z,9.28
2017-11-08T00:55:31.336Z,9.28
2017-11-08T00:55:57.452Z,9.28
2017-11-08T00:56:23.568Z,9.28
2017-11-08T00:56:49.686Z,9.32
2017-11-08T00:57:15.810Z,9.25
2017-11-08T00:57:41.962Z,9.28
2017-11-08T00:58:08.083Z,9.29
2017-11-08T00:58:34.201Z,9.31
2017-11-08T00:59:00.327Z,9.32
2017-11-08T00:59:26.448Z,9.34
2017-11-08T00:59:52.566Z,9.32
2017-11-08T01:00:18.728Z,9.29
2017-11-08T01:00:44.802Z,9.21
2017-11-08T01:01:10.951Z,9.14
2017-11-08T01:01:37.075Z,9.18
2017-11-08T01:02:03.194Z,9.14
2017-11-08T01:02:29.319Z,9.14
2017-11-08T01:02:55.446Z,9.11
2017-11-08T01:03:21.560Z,9.13
2017-11-08T01:03:47.687Z,9.19
2017-11-08T01:04:13.803Z,9.08
2017-11-08T01:04:39.922Z,9.11
2017-11-08T01:05:06.046Z,9.16
2017-11-08T01:05:32.169Z,9.18
2017-11-08T01:05:58.285Z,9.03
2017-11-08T01:06:24.405Z,9.04
2017-11-08T01:06:50.521Z,9.13
2017-11-08T01:07:16.670Z,9.18
2017-11-08T01:07:42.793Z,9.16
2017-11-08T01:08:08.912Z,9.23
2017-11-08T01:08:35.028Z,9.22
2017-11-08T01:09:01.153Z,9.26
2017-11-08T01:09:27.277Z,9.29
2017-11-08T01:09:53.394Z,9.31
2017-11-08T01:10:19.522Z,9.32
2017-11-08T01:10:45.634Z,9.28
2017-11-08T01:11:11.761Z,9.29
2017-11-08T01:11:37.877Z,9.29
2017-11-08T01:12:03.997Z,9.28
2017-11-08T01:12:30.124Z,9.23
2017-11-08T01:12:56.239Z,9.25
2017-11-08T01:13:22.362Z,9.28
2017-11-08T01:13:48.481Z,9.31
2017-11-08T01:14:14.607Z,9.25
2017-11-08T01:14:40.725Z,9.26
2017-11-08T01:15:06.850Z,9.21
2017-11-08T01:15:32.977Z,9.23
2017-11-08T01:15:59.092Z,9.1
2017-11-08T01:16:25.218Z,9.16
2017-11-08T01:16:51.331Z,9.03
2017-11-08T01:17:17.453Z,9.1
2017-11-08T01:17:43.576Z,9.11
2017-11-08T01:18:09.696Z,9.14
2017-11-08T01:18:35.821Z,9.13
2017-11-08T01:19:01.944Z,9.14
2017-11-08T01:19:28.061Z,9.11
2017-11-08T01:19:54.179Z,9.16
2017-11-08T01:20:20.298Z,9.19
2017-11-08T01:20:46.422Z,9.26
2017-11-08T01:21:12.537Z,9.23
2017-11-08T01:21:38.661Z,9.23
2017-11-08T01:22:04.795Z,9.16
2017-11-08T01:22:30.910Z,9.23
2017-11-08T01:22:57.027Z,9.23
2017-11-08T01:23:23.144Z,9.21
2017-11-08T01:23:49.269Z,9.21
2017-11-08T01:24:15.389Z,9.23
2017-11-08T01:24:41.506Z,9.25
2017-11-08T01:25:07.657Z,9.25
2017-11-08T01:25:33.776Z,9.22
2017-11-08T01:25:59.902Z,9.29
2017-11-08T01:26:26.022Z,9.34
2017-11-08T01:26:52.140Z,9.36
2017-11-08T01:27:18.261Z,9.36
2017-11-08T01:27:44.380Z,9.4
2017-11-08T01:28:10.497Z,9.39
2017-11-08T01:28:36.627Z,9.29
2017-11-08T01:29:02.752Z,9.37
2017-11-08T01:29:28.869Z,9.4
2017-11-08T01:29:54.995Z,9.43
2017-11-08T01:30:21.117Z,9.41
2017-11-08T01:30:47.233Z,9.47
2017-11-08T01:31:13.360Z,9.48
2017-11-08T01:31:39.499Z,9.47
2017-11-08T01:32:05.614Z,9.44
2017-11-08T01:32:31.757Z,9.47
2017-11-08T01:32:57.877Z,9.51
2017-11-08T01:33:24.020Z,9.46
2017-11-08T01:33:50.137Z,9.41
2017-11-08T01:34:16.259Z,9.51
2017-11-08T01:34:42.387Z,9.55
2017-11-08T01:35:08.502Z,9.48
2017-11-08T01:35:34.636Z,9.51
2017-11-08T01:36:00.744Z,9.46
2017-11-08T01:36:26.888Z,9.46
2017-11-08T01:36:53.015Z,9.41
2017-11-08T01:37:19.137Z,9.47
2017-11-08T01:37:45.264Z,9.46
2017-11-08T01:38:11.370Z,9.44
2017-11-08T01:38:37.505Z,9.46
2017-11-08T01:39:03.616Z,9.48
2017-11-08T01:39:29.762Z,9.47
2017-11-08T01:39:55.876Z,9.43
2017-11-08T01:40:22.017Z,9.47
2017-11-08T01:40:48.142Z,9.5
2017-11-08T01:41:14.263Z,9.44
2017-11-08T01:41:40.388Z,9.44
2017-11-08T01:42:06.514Z,9.47
2017-11-08T01:42:32.644Z,9.47
2017-11-08T01:42:58.784Z,9.46
2017-11-08T01:43:24.898Z,9.46
2017-11-08T01:43:51.025Z,9.46
2017-11-08T01:44:17.142Z,9.43
2017-11-08T01:44:43.262Z,9.39
2017-11-08T01:45:09.384Z,9.37
2017-11-08T01:45:35.510Z,9.4
2017-11-08T01:46:01.675Z,9.39
2017-11-08T01:46:27.848Z,9.41
2017-11-08T01:46:54.084Z,9.4
2017-11-08T01:47:20.211Z,9.41
2017-11-08T01:47:46.344Z,9.37
2017-11-08T01:48:12.493Z,9.34
2017-11-08T01:48:38.610Z,9.26
2017-11-08T01:49:04.731Z,9.34
2017-11-08T01:49:30.876Z,9.21
2017-11-08T01:49:56.978Z,9.26
2017-11-08T01:50:23.109Z,9.23
2017-11-08T01:50:49.236Z,9.26
2017-11-08T01:51:15.364Z,9.29
2017-11-08T01:51:41.492Z,9.23
2017-11-08T01:52:07.611Z,9.32
2017-11-08T01:52:33.762Z,9.22
2017-11-08T01:52:59.896Z,9.28
2017-11-08T01:53:26.026Z,9.34
2017-11-08T01:53:52.142Z,9.36
2017-11-08T01:54:18.265Z,9.39
2017-11-08T01:54:44.390Z,9.32
2017-11-08T01:55:10.506Z,9.36
2017-11-08T01:55:36.670Z,9.36
2017-11-08T01:56:02.753Z,9.5
2017-11-08T01:56:28.877Z,9.44
2017-11-08T01:56:55.127Z,9.43
2017-11-08T01:57:21.312Z,9.41
2017-11-08T01:57:47.412Z,9.34
2017-11-08T01:58:13.545Z,9.4
2017-11-08T01:58:39.660Z,9.32
2017-11-08T01:59:05.785Z,9.39
2017-11-08T01:59:31.936Z,9.36
2017-11-08T01:59:58.079Z,9.43
2017-11-08T02:00:24.421Z,9.4
2017-11-08T02:00:50.547Z,9.41
2017-11-08T02:01:16.664Z,9.39
2017-11-08T02:01:42.788Z,9.43
2017-11-08T02:02:08.908Z,9.47
2017-11-08T02:02:35.031Z,9.4
2017-11-08T02:03:01.149Z,9.4
2017-11-08T02:03:27.284Z,9.4
2017-11-08T02:03:53.412Z,9.46
2017-11-08T02:04:19.526Z,9.36
2017-11-08T02:04:45.649Z,9.32
2017-11-08T02:05:11.772Z,9.23
2017-11-08T02:05:37.898Z,9.28
2017-11-08T02:06:04.021Z,9.22
2017-11-08T02:06:30.138Z,9.28
2017-11-08T02:06:56.266Z,9.34
2017-11-08T02:07:22.386Z,9.36
2017-11-08T02:07:48.515Z,9.44
2017-11-08T02:08:14.620Z,9.41
2017-11-08T02:08:40.744Z,9.44
2017-11-08T02:09:06.866Z,9.44
2017-11-08T02:09:32.993Z,9.43
2017-11-08T02:09:59.110Z,9.5
2017-11-08T02:10:25.235Z,9.39
2017-11-08T02:10:51.349Z,9.31
2017-11-08T02:11:17.467Z,9.31
2017-11-08T02:11:43.590Z,9.31
2017-11-08T02:12:09.718Z,9.25
2017-11-08T02:12:35.860Z,9.25
2017-11-08T02:13:01.978Z,9.26
2017-11-08T02:13:28.102Z,9.25
2017-11-08T02:13:54.230Z,9.26
2017-11-08T02:14:20.346Z,9.23
2017-11-08T02:14:46.469Z,9.25
2017-11-08T02:15:12.585Z,9.37
2017-11-08T02:15:38.707Z,9.23
2017-11-08T02:16:04.850Z,9.21
2017-11-08T02:16:30.970Z,9.18
2017-11-08T02:16:57.096Z,9.25
2017-11-08T02:17:23.213Z,9.18
2017-11-08T02:17:49.360Z,9.19
2017-11-08T02:18:15.501Z,9.14
2017-11-08T02:18:41.644Z,9
2017-11-08T02:19:07.770Z,9.06
2017-11-08T02:19:33.886Z,9.02
2017-11-08T02:20:00.004Z,9.02
2017-11-08T02:20:26.129Z,9.06
2017-11-08T02:20:52.251Z,8.97
2017-11-08T02:21:18.366Z,8.87
2017-11-08T02:21:44.496Z,8.85
2017-11-08T02:22:10.617Z,8.85
2017-11-08T02:22:36.730Z,8.94
2017-11-08T02:23:02.856Z,8.95
2017-11-08T02:23:28.973Z,9
2017-11-08T02:23:55.099Z,8.87
2017-11-08T02:24:21.224Z,8.87
2017-11-08T02:24:47.342Z,8.85
2017-11-08T02:25:13.462Z,8.85
2017-11-08T02:25:39.582Z,8.79
2017-11-08T02:26:05.706Z,8.79
2017-11-08T02:26:31.831Z,8.81
2017-11-08T02:26:57.953Z,8.85
2017-11-08T02:27:24.070Z,8.89
2017-11-08T02:27:50.191Z,8.91
2017-11-08T02:28:16.306Z,8.78
2017-11-08T02:28:42.424Z,8.78
2017-11-08T02:29:08.547Z,8.81
2017-11-08T02:29:35.372Z,8.82
2017-11-08T02:30:01.500Z,8.78
2017-11-08T02:30:27.622Z,8.71
2017-11-08T02:30:53.740Z,8.74
2017-11-08T02:31:19.865Z,8.79
2017-11-08T02:31:45.980Z,8.82
2017-11-08T02:32:12.113Z,8.87
2017-11-08T02:32:38.233Z,8.78
2017-11-08T02:33:04.348Z,8.78
2017-11-08T02:33:30.464Z,8.7
2017-11-08T02:33:56.586Z,8.73
2017-11-08T02:34:22.704Z,8.69
2017-11-08T02:34:48.830Z,8.74
2017-11-08T02:35:14.946Z,8.7
2017-11-08T02:35:41.067Z,8.71
2017-11-08T02:36:07.194Z,8.67
2017-11-08T02:36:33.351Z,8.69
2017-11-08T02:36:59.476Z,8.73
2017-11-08T02:37:25.592Z,8.69
2017-11-08T02:37:51.718Z,8.73
2017-11-08T02:38:17.843Z,8.74
2017-11-08T02:38:43.960Z,8.74
2017-11-08T02:39:10.075Z,8.74
2017-11-08T02:39:36.200Z,8.74
2017-11-08T02:40:02.321Z,8.74
2017-11-08T02:40:28.438Z,8.76
2017-11-08T02:40:54.564Z,8.84
2017-11-08T02:41:20.678Z,8.85
2017-11-08T02:41:46.796Z,8.85
2017-11-08T02:42:12.940Z,8.87
2017-11-08T02:42:39.058Z,8.84
2017-11-08T02:43:05.184Z,8.91
2017-11-08T02:43:31.320Z,8.94
2017-11-08T02:43:57.443Z,9
2017-11-08T02:44:23.563Z,8.92
2017-11-08T02:44:49.687Z,9
2017-11-08T02:45:15.806Z,9.04
2017-11-08T02:45:41.929Z,9.08
2017-11-08T02:46:08.052Z,9.06
2017-11-08T02:46:34.173Z,9.08
2017-11-08T02:47:00.287Z,9.13
2017-11-08T02:47:26.404Z,9.02
2017-11-08T02:47:52.530Z,9.1
2017-11-08T02:48:18.643Z,9.1
2017-11-08T02:48:44.764Z,9.14
2017-11-08T02:49:10.885Z,9.16
2017-11-08T02:49:37.005Z,9.11
2017-11-08T02:50:03.152Z,9.16
2017-11-08T02:50:29.275Z,9.21
2017-11-08T02:50:55.390Z,9.18
2017-11-08T02:51:21.520Z,9.28
2017-11-08T02:51:47.639Z,9.23
2017-11-08T02:52:13.757Z,9.31
2017-11-08T02:52:39.883Z,9.29
2017-11-08T02:53:05.997Z,9.34
2017-11-08T02:53:32.139Z,9.25
2017-11-08T02:53:58.296Z,9.22
2017-11-08T02:54:24.420Z,9.26
2017-11-08T02:54:50.548Z,9.11
2017-11-08T02:55:16.663Z,9.18
2017-11-08T02:55:42.786Z,9.04
2017-11-08T02:56:08.934Z,9.04
2017-11-08T02:56:35.067Z,9
2017-11-08T02:57:01.214Z,9.06
2017-11-08T02:57:27.339Z,9.06
2017-11-08T02:57:53.456Z,9.06
2017-11-08T02:58:19.582Z,9.04
2017-11-08T02:58:45.701Z,8.97
2017-11-08T02:59:11.820Z,8.92
2017-11-08T02:59:37.964Z,9.1
2017-11-08T03:00:04.093Z,9.13
2017-11-08T03:00:30.206Z,9.02
2017-11-08T03:00:56.335Z,9.04
2017-11-08T03:01:22.443Z,9.1
2017-11-08T03:01:48.582Z,9.16
2017-11-08T03:02:14.707Z,9.11
2017-11-08T03:02:40.825Z,9.19
2017-11-08T03:03:06.948Z,9.21
2017-11-08T03:03:33.071Z,9.08
2017-11-08T03:03:59.194Z,9.19
2017-11-08T03:04:25.316Z,9.22
2017-11-08T03:04:51.430Z,9.26
2017-11-08T03:05:17.555Z,9.19
2017-11-08T03:05:43.672Z,9.16
2017-11-08T03:06:09.797Z,9.18
2017-11-08T03:06:35.924Z,9.25
2017-11-08T03:07:02.034Z,9.25
2017-11-08T03:07:28.161Z,9.25
2017-11-08T03:07:54.285Z,9.32
2017-11-08T03:08:20.400Z,9.37
2017-11-08T03:08:46.522Z,9.28
2017-11-08T03:09:12.647Z,9.31
2017-11-08T03:09:38.784Z,9.22
2017-11-08T03:10:04.907Z,9.28
2017-11-08T03:10:31.032Z,9.23
2017-11-08T03:10:57.147Z,9.23
2017-11-08T03:11:23.272Z,9.22
2017-11-08T03:11:49.395Z,9.23
2017-11-08T03:12:15.512Z,9.16
2017-11-08T03:12:41.638Z,9.21
2017-11-08T03:13:07.759Z,9.23
2017-11-08T03:13:33.874Z,9.19
2017-11-08T03:13:59.998Z,9.31
2017-11-08T03:14:26.134Z,9.29
2017-11-08T03:14:52.261Z,9.36
2017-11-08T03:15:18.376Z,9.41
2017-11-08T03:15:44.496Z,9.36
2017-11-08T03:16:10.624Z,9.31
2017-11-08T03:16:36.740Z,9.4
2017-11-08T03:17:02.861Z,9.34
2017-11-08T03:17:29.007Z,9.31
2017-11-08T03:17:55.127Z,9.39
2017-11-08T03:18:21.244Z,9.41
2017-11-08T03:18:47.364Z,9.41
2017-11-08T03:19:13.481Z,9.46
2017-11-08T03:19:39.609Z,9.47
2017-11-08T03:20:05.730Z,9.41
2017-11-08T03:20:31.864Z,9.39
2017-11-08T03:20:57.965Z,9.48
2017-11-08T03:21:24.117Z,9.44
2017-11-08T03:21:50.234Z,9.4
2017-11-08T03:22:16.352Z,9.31
2017-11-08T03:22:42.472Z,9.39
2017-11-08T03:23:08.598Z,9.4
2017-11-08T03:23:34.720Z,9.31
2017-11-08T03:24:00.838Z,9.36
2017-11-08T03:24:26.955Z,9.4
2017-11-08T03:24:53.076Z,9.44
2017-11-08T03:25:19.202Z,9.39
2017-11-08T03:25:45.318Z,9.36
2017-11-08T03:26:11.443Z,9.26
2017-11-08T03:26:37.563Z,9.16
2017-11-08T03:27:03.687Z,9.25
2017-11-08T03:27:29.810Z,9.26
2017-11-08T03:27:55.930Z,9.34
2017-11-08T03:28:22.051Z,9.25
2017-11-08T03:28:48.175Z,9.26
2017-11-08T03:29:14.291Z,9.19
2017-11-08T03:29:40.410Z,9.25
2017-11-08T03:30:06.539Z,9.21
2017-11-08T03:30:32.654Z,9.16
2017-11-08T03:30:58.776Z,9.26
2017-11-08T03:31:24.902Z,9.23
2017-11-08T03:31:51.020Z,9.22
2017-11-08T03:32:17.138Z,9.23
2017-11-08T03:32:43.257Z,9.25
2017-11-08T03:33:09.373Z,9.23
2017-11-08T03:33:35.500Z,9.21
2017-11-08T03:34:01.615Z,9.23
2017-11-08T03:34:27.750Z,9.26
2017-11-08T03:34:53.857Z,9.31
2017-11-08T03:35:19.985Z,9.22
2017-11-08T03:35:46.102Z,9.26
2017-11-08T03:36:12.244Z,9.22
2017-11-08T03:36:38.361Z,9.25
2017-11-08T03:37:04.492Z,9.25
2017-11-08T03:37:30.615Z,9.23
2017-11-08T03:37:56.737Z,9.19
2017-11-08T03:38:22.851Z,9.21
2017-11-08T03:38:48.968Z,9.22
2017-11-08T03:39:15.088Z,9.21
2017-11-08T03:39:41.208Z,9.11
2017-11-08T03:40:07.331Z,9.14
2017-11-08T03:40:33.459Z,9.22
2017-11-08T03:40:59.616Z,9.16
2017-11-08T03:41:25.736Z,9.19
2017-11-08T03:41:51.862Z,9.16
2017-11-08T03:42:17.986Z,9.11
2017-11-08T03:42:44.112Z,9.13
2017-11-08T03:43:10.228Z,9.1
2017-11-08T03:43:36.346Z,9.16
2017-11-08T03:44:02.470Z,9.18
2017-11-08T03:44:28.590Z,9.19
2017-11-08T03:44:54.713Z,9.19
2017-11-08T03:45:20.843Z,9.11
2017-11-08T03:45:46.976Z,9.14
2017-11-08T03:46:13.114Z,9.18
2017-11-08T03:46:39.236Z,9.14
2017-11-08T03:47:05.382Z,9.18
2017-11-08T03:47:31.509Z,9.16
2017-11-08T03:47:57.625Z,9.08
2017-11-08T03:48:23.748Z,9.14
2017-11-08T03:48:49.869Z,9.14
2017-11-08T03:49:15.994Z,9.11
2017-11-08T03:49:42.113Z,9.11
2017-11-08T03:50:08.232Z,9.14
2017-11-08T03:50:34.352Z,9.06
2017-11-08T03:51:00.479Z,9.02
2017-11-08T03:51:26.598Z,9.06
2017-11-08T03:51:52.718Z,9.04
2017-11-08T03:52:18.837Z,9.1
2017-11-08T03:52:44.962Z,9.13
2017-11-08T03:53:11.078Z,9.04
2017-11-08T03:53:37.204Z,9.03
2017-11-08T03:54:03.343Z,9.08
2017-11-08T03:54:29.468Z,9.1
2017-11-08T03:54:55.592Z,9.04
2017-11-08T03:55:21.712Z,9.02
2017-11-08T03:55:47.835Z,8.97
2017-11-08T03:56:13.956Z,8.99
2017-11-08T03:56:40.077Z,9.03
2017-11-08T03:57:06.194Z,8.92
2017-11-08T03:57:32.315Z,8.95
2017-11-08T03:57:58.439Z,9.06
2017-11-08T03:58:24.557Z,8.97
2017-11-08T03:58:50.681Z,9.04
2017-11-08T03:59:16.804Z,9.04
2017-11-08T03:59:42.923Z,9.04
2017-11-08T04:00:09.046Z,9.08
2017-11-08T04:00:35.185Z,9
2017-11-08T04:01:01.308Z,9.1
2017-11-08T04:01:27.431Z,9.02
2017-11-08T04:01:53.559Z,9.04
2017-11-08T04:02:19.685Z,9.04
2017-11-08T04:02:45.808Z,9.02
2017-11-08T04:03:11.947Z,9.1
2017-11-08T04:03:38.067Z,9.16
2017-11-08T04:04:04.193Z,9.14
2017-11-08T04:04:30.312Z,9.13
2017-11-08T04:04:56.461Z,9.13
2017-11-08T04:05:22.570Z,9.25
2017-11-08T04:05:48.689Z,9.21
2017-11-08T04:06:14.816Z,9.21
2017-11-08T04:06:40.936Z,9.23
2017-11-08T04:07:07.057Z,9.14
2017-11-08T04:07:33.181Z,9.11
2017-11-08T04:07:59.301Z,9.18
2017-11-08T04:08:25.427Z,9.19
2017-11-08T04:08:51.562Z,9.18
2017-11-08T04:09:17.680Z,9.23
2017-11-08T04:09:43.809Z,9.23
2017-11-08T04:10:09.927Z,9.21
2017-11-08T04:10:36.051Z,9.22
2017-11-08T04:11:02.180Z,9.18
2017-11-08T04:11:28.306Z,9.25
2017-11-08T04:11:54.422Z,9.26
2017-11-08T04:12:20.551Z,9.19
2017-11-08T04:12:46.670Z,9.21
2017-11-08T04:13:12.798Z,9.13
2017-11-08T04:13:38.917Z,9.18
2017-11-08T04:14:05.032Z,9.21
2017-11-08T04:14:31.168Z,9.11
2017-11-08T04:14:57.270Z,9.13
2017-11-08T04:15:23.401Z,9.04
2017-11-08T04:15:49.524Z,9.1
2017-11-08T04:16:15.639Z,8.95
2017-11-08T04:16:41.765Z,9.02
2017-11-08T04:17:07.881Z,9.1
2017-11-08T04:17:34.024Z,9.06
2017-11-08T04:18:00.149Z,8.88
2017-11-08T04:18:26.287Z,9.02
2017-11-08T04:18:52.410Z,9.02
2017-11-08T04:19:18.535Z,8.87
2017-11-08T04:19:44.651Z,8.87
2017-11-08T04:20:10.772Z,8.94
2017-11-08T04:20:36.893Z,8.89
2017-11-08T04:21:03.012Z,8.88
2017-11-08T04:21:29.166Z,8.89
2017-11-08T04:21:55.284Z,8.89
2017-11-08T04:22:21.420Z,8.94
2017-11-08T04:22:47.546Z,8.97
2017-11-08T04:23:13.665Z,8.87
2017-11-08T04:23:39.782Z,8.91
2017-11-08T04:24:05.903Z,8.84
2017-11-08T04:24:32.035Z,8.85
2017-11-08T04:24:58.145Z,8.81
2017-11-08T04:25:24.266Z,8.82
2017-11-08T04:25:50.391Z,8.85
2017-11-08T04:26:16.528Z,8.88
2017-11-08T04:26:42.650Z,8.81
2017-11-08T04:27:08.770Z,8.84
2017-11-08T04:27:34.898Z,8.78
2017-11-08T04:28:01.019Z,8.88
2017-11-08T04:28:27.137Z,8.87
2017-11-08T04:28:53.260Z,8.92
2017-11-08T04:29:19.378Z,8.85
2017-11-08T04:29:45.495Z,8.84
2017-11-08T04:30:11.623Z,8.87
2017-11-08T04:30:37.746Z,8.81
2017-11-08T04:31:03.860Z,8.87
2017-11-08T04:31:29.983Z,8.82
2017-11-08T04:31:56.100Z,8.92
2017-11-08T04:32:22.226Z,8.94
2017-11-08T04:32:48.369Z,8.87
2017-11-08T04:33:14.488Z,8.92
2017-11-08T04:33:40.611Z,8.85
2017-11-08T04:34:06.733Z,8.87
2017-11-08T04:34:32.856Z,8.91
2017-11-08T04:34:58.972Z,8.95
2017-11-08T04:35:25.090Z,8.87
2017-11-08T04:35:51.221Z,9.04
2017-11-08T04:36:17.340Z,8.94
2017-11-08T04:36:43.463Z,8.94
2017-11-08T04:37:09.578Z,8.87
2017-11-08T04:37:35.694Z,8.87
2017-11-08T04:38:01.830Z,8.87
2017-11-08T04:38:27.941Z,8.85
2017-11-08T04:38:54.085Z,8.84
2017-11-08T04:39:20.202Z,8.87
2017-11-08T04:39:46.329Z,8.87
2017-11-08T04:40:12.476Z,8.95
2017-11-08T04:40:38.594Z,9.03
2017-11-08T04:41:04.717Z,8.99
2017-11-08T04:41:30.836Z,9
2017-11-08T04:41:56.958Z,8.97
2017-11-08T04:42:23.097Z,8.95
2017-11-08T04:42:49.223Z,8.94
2017-11-08T04:43:15.360Z,8.95
2017-11-08T04:43:41.486Z,8.91
2017-11-08T04:44:07.629Z,8.97
2017-11-08T04:44:33.747Z,9
2017-11-08T04:44:59.891Z,8.99
2017-11-08T04:45:26.010Z,9.02
2017-11-08T04:45:52.151Z,9.03
2017-11-08T04:46:18.272Z,8.99
2017-11-08T04:46:44.390Z,8.92
2017-11-08T04:47:10.515Z,8.92
2017-11-08T04:47:36.632Z,9.08
2017-11-08T04:48:02.758Z,9.02
2017-11-08T04:48:28.877Z,8.97
2017-11-08T04:48:54.993Z,9.1
2017-11-08T04:49:21.119Z,9.1
2017-11-08T04:49:47.242Z,8.95
2017-11-08T04:50:13.358Z,8.95
2017-11-08T04:50:39.473Z,9.02
2017-11-08T04:51:05.616Z,8.97
2017-11-08T04:51:31.728Z,9.06
2017-11-08T04:51:57.853Z,9.06
2017-11-08T04:52:23.974Z,8.92
2017-11-08T04:52:50.101Z,8.92
2017-11-08T04:53:16.227Z,8.99
2017-11-08T04:53:42.340Z,9.02
2017-11-08T04:54:08.465Z,9.1
2017-11-08T04:54:34.580Z,9.08
2017-11-08T04:55:00.706Z,9.02
2017-11-08T04:55:26.824Z,9.04
2017-11-08T04:55:52.947Z,9.06
2017-11-08T04:56:19.073Z,9.18
2017-11-08T04:56:45.188Z,9.18
2017-11-08T04:57:11.304Z,9.11
2017-11-08T04:57:37.435Z,9.13
2017-11-08T04:58:03.892Z,9.19
2017-11-08T04:58:30.008Z,9.28
2017-11-08T04:58:56.135Z,9.26
2017-11-08T04:59:22.250Z,9.29
2017-11-08T04:59:48.397Z,9.22
2017-11-08T05:00:14.509Z,9.23
2017-11-08T05:00:40.639Z,9.22
2017-11-08T05:01:06.763Z,9.23
2017-11-08T05:01:32.879Z,9.22
2017-11-08T05:01:59.007Z,9.25
2017-11-08T05:02:25.126Z,9.28
2017-11-08T05:02:51.240Z,9.25
2017-11-08T05:03:17.374Z,9.26
2017-11-08T05:03:43.486Z,9.25
2017-11-08T05:04:09.612Z,9.25
2017-11-08T05:04:35.735Z,9.21
2017-11-08T05:05:01.854Z,9.25
2017-11-08T05:05:27.976Z,9.25
2017-11-08T05:05:54.090Z,9.21
2017-11-08T05:06:20.216Z,9.23
2017-11-08T05:06:46.333Z,9.21
2017-11-08T05:07:12.480Z,9.23
2017-11-08T05:07:38.597Z,9.25
2017-11-08T05:08:04.723Z,9.21
2017-11-08T05:08:30.844Z,9.23
2017-11-08T05:08:56.964Z,9.23
2017-11-08T05:09:23.085Z,9.22
2017-11-08T05:09:49.208Z,9.13
2017-11-08T05:10:15.324Z,9.04
2017-11-08T05:10:41.448Z,9.06
2017-11-08T05:11:07.571Z,9.14
2017-11-08T05:11:33.690Z,9.04
2017-11-08T05:11:59.809Z,9.04
2017-11-08T05:12:25.935Z,8.99
2017-11-08T05:12:52.057Z,8.95
2017-11-08T05:13:18.193Z,9.03
2017-11-08T05:13:44.308Z,9.08
2017-11-08T05:14:10.438Z,9.02
2017-11-08T05:14:36.559Z,9.03
2017-11-08T05:15:02.685Z,8.99
2017-11-08T05:15:28.821Z,9.04
2017-11-08T05:15:54.939Z,9.03
2017-11-08T05:16:21.065Z,9.06
2017-11-08T05:16:47.183Z,9
2017-11-08T05:17:13.303Z,8.97
2017-11-08T05:17:39.424Z,9.02
2017-11-08T05:18:05.540Z,9.02
2017-11-08T05:18:31.682Z,8.92
2017-11-08T05:18:57.819Z,8.97
2017-11-08T05:19:23.939Z,8.95
2017-11-08T05:19:50.065Z,8.88
2017-11-08T05:20:16.189Z,8.97
2017-11-08T05:20:42.309Z,9
2017-11-08T05:21:08.435Z,8.99
2017-11-08T05:21:34.565Z,9.02
2017-11-08T05:22:00.681Z,8.88
2017-11-08T05:22:26.799Z,9.04
2017-11-08T05:22:52.919Z,9
2017-11-08T05:23:19.037Z,9.13
2017-11-08T05:23:45.165Z,9.02
2017-11-08T05:24:11.305Z,9.06
2017-11-08T05:24:37.433Z,9.11
2017-11-08T05:25:03.551Z,8.99
2017-11-08T05:25:29.673Z,9
2017-11-08T05:25:55.789Z,8.88
2017-11-08T05:26:21.906Z,9.02
2017-11-08T05:26:48.028Z,8.87
2017-11-08T05:27:14.154Z,8.85
2017-11-08T05:27:40.272Z,8.81
2017-11-08T05:28:06.391Z,8.78
2017-11-08T05:28:32.516Z,8.74
2017-11-08T05:28:58.637Z,8.63
2017-11-08T05:29:24.781Z,8.69
2017-11-08T05:29:50.901Z,8.63
2017-11-08T05:30:17.042Z,8.64
2017-11-08T05:30:43.164Z,8.63
2017-11-08T05:31:09.280Z,8.53
2017-11-08T05:31:35.421Z,8.58
2017-11-08T05:32:01.544Z,8.58
2017-11-08T05:32:27.659Z,8.52
2017-11-08T05:32:53.781Z,8.55
2017-11-08T05:33:19.917Z,8.52
2017-11-08T05:33:46.022Z,8.61
2017-11-08T05:34:12.150Z,8.64
2017-11-08T05:34:38.304Z,8.61
2017-11-08T05:35:04.423Z,8.6
2017-11-08T05:35:30.555Z,8.63
2017-11-08T05:35:56.672Z,8.74
2017-11-08T05:36:22.797Z,8.74
2017-11-08T05:36:48.908Z,8.89
2017-11-08T05:37:15.028Z,8.85
2017-11-08T05:37:41.150Z,8.87
2017-11-08T05:38:07.270Z,8.82
2017-11-08T05:38:33.400Z,8.84
2017-11-08T05:38:59.519Z,8.81
2017-11-08T05:39:25.638Z,8.82
2017-11-08T05:39:51.761Z,8.78
2017-11-08T05:40:17.903Z,8.79
2017-11-08T05:40:44.023Z,8.73
2017-11-08T05:41:10.140Z,8.71
2017-11-08T05:41:36.266Z,8.67
2017-11-08T05:42:02.386Z,8.74
2017-11-08T05:42:28.505Z,8.74
2017-11-08T05:42:54.626Z,8.73
2017-11-08T05:43:20.753Z,8.78
2017-11-08T05:43:46.870Z,8.84
2017-11-08T05:44:12.992Z,8.85
2017-11-08T05:44:39.114Z,8.87
2017-11-08T05:45:05.235Z,8.85
2017-11-08T05:45:31.360Z,8.91
2017-11-08T05:45:57.487Z,8.85
2017-11-08T05:46:23.600Z,8.84
2017-11-08T05:46:49.721Z,8.81
2017-11-08T05:47:15.845Z,8.87
2017-11-08T05:47:41.967Z,8.91
2017-11-08T05:48:08.089Z,8.81
2017-11-08T05:48:34.206Z,8.84